CheckWX is a tool to help pilots better visualize weather data.  It is not intended as a substitute for an official pre-flight weather briefing.

03:14:10 UTC

KIXD METAR
New Century Aircenter Airport
Olathe, Kansas, USA
Current

21 mins ago

KIXD 240253Z 14013G21KT 10SM OVC025 11/07 A3003 RMK AO2 RAE05 SLP169 P0000 60000 T01060072 50006
Observed
Mar-24 @ 02:53 UTC
Wind
  • 140° at 13 KTS
  • Gusting to 21 KTS
Visibility
10 SM
Flight Rules
MVFR
Cloud Levels
  • Overcast at 2,500' AGL
Temperature
11°C / 52°F
Dewpoint
C / 45°F
Humidity
77%
Altimeter
30.03" Hg
Pressure
1016.9 hPa
Current Rain
0.01"
Previous

1 hour ago

KIXD 240153Z 14011KT 6SM -RA BR OVC027 11/09 A3004 RMK AO2 RAB0058 SLP171 P0000 T01060094
Observed
Mar-24 @ 01:53 UTC
Wind
  • 140° at 11 KTS
Visibility
6 SM
Flight Rules
MVFR
Conditions
Light Rain, Mist
Cloud Levels
  • Overcast at 2,700' AGL
Temperature
11°C / 52°F
Dewpoint
C / 48°F
Humidity
88%
Altimeter
30.04" Hg
Pressure
1017.1 hPa
Current Rain
0.01"
Previous

2 hours ago

KIXD 240120Z 14008KT 10SM -RA OVC029 11/09 A3004 RMK AO2 RAB0058 P0000 T01110094
Observed
Mar-24 @ 01:20 UTC
Wind
  • 140° at 8 KTS
Visibility
10 SM
Flight Rules
MVFR
Conditions
Light Rain
Cloud Levels
  • Overcast at 2,900' AGL
Temperature
11°C / 52°F
Dewpoint
C / 48°F
Humidity
88%
Altimeter
30.04" Hg
Pressure
1017.32 hPa
Current Rain
0.01"